createdAt,value
2023-01-13T00:01:19.145Z,71.36225836585882
2023-01-13T00:04:16.655Z,71.99561729431542
2023-01-13T00:07:16.718Z,72.39750233264634
2023-01-13T00:11:16.840Z,72.45276783946912
2023-01-13T00:14:17.052Z,72.68282278622185
2023-01-13T00:17:16.306Z,72.60057903666389
2023-01-13T00:21:17.563Z,72.41933004588641
2023-01-13T00:24:16.033Z,72.61422027139463
2023-01-13T00:27:16.081Z,72.88782918022747
2023-01-13T00:31:18.461Z,72.71131688455976
2023-01-13T00:34:16.273Z,72.4691917320157
2023-01-13T00:37:16.266Z,72.5558924382745
2023-01-13T00:41:17.695Z,72.30389034879623
2023-01-13T00:44:16.082Z,72.88354464915825
2023-01-13T00:47:15.899Z,73.22560532810296
2023-01-13T00:51:19.451Z,72.49129386048462
2023-01-13T00:54:16.732Z,72.65333671951598
2023-01-13T00:57:16.938Z,72.85052582976274
2023-01-13T01:01:18.392Z,72.83658262992911
2023-01-13T01:04:16.461Z,73.19237761737165
2023-01-13T01:07:16.331Z,73.07369615186953
2023-01-13T01:11:18.148Z,73.61630866494187
2023-01-13T01:14:15.847Z,73.39589722078372
2023-01-13T01:17:15.831Z,73.27706247921557
2023-01-13T01:21:16.915Z,73.25000005941453
2023-01-13T01:24:16.784Z,73.30986237637018
2023-01-13T01:27:16.736Z,73.73233972845985
2023-01-13T01:31:17.746Z,73.81736298480938
2023-01-13T01:34:15.996Z,74.24247732259062
2023-01-13T01:37:16.112Z,74.63619066487963
2023-01-13T01:41:18.989Z,75.31461490295266
2023-01-13T01:44:57.844Z,75.56363826768478
2023-01-13T01:47:18.343Z,75.8497985079871
2023-01-13T01:51:16.316Z,75.85861711997472
2023-01-13T01:54:21.968Z,75.93668584984832
2023-01-13T01:57:22.245Z,75.28062395188815
2023-01-13T02:01:16.071Z,75.4859671800951
2023-01-13T02:04:22.987Z,75.86562457102036
2023-01-13T02:07:17.052Z,75.96565450338326
2023-01-13T02:12:29.930Z,76.02482650126066
2023-01-13T02:14:18.502Z,76.35115779584105
2023-01-13T02:17:27.943Z,76.37948374153643
2023-01-13T02:21:38.027Z,76.6551705573469
2023-01-13T02:31:52.835Z,77.0017125625429
2023-01-13T02:34:22.276Z,76.54052051504625
2023-01-13T02:37:24.528Z,76.60840950655894
2023-01-13T02:51:19.805Z,76.12343217129418
2023-01-13T02:54:20.996Z,76.58059190674497
2023-01-13T02:57:19.689Z,76.48976393522956
2023-01-13T03:01:17.467Z,76.34822401039185
2023-01-13T03:04:46.022Z,76.40388686521794
2023-01-13T03:07:40.160Z,77.05376678079206
2023-01-13T03:11:19.403Z,76.8741226969713
2023-01-13T03:14:28.348Z,76.84098921406093
2023-01-13T03:17:24.586Z,76.76427404371613
2023-01-13T03:21:24.084Z,76.86033810719502
2023-01-13T03:24:21.861Z,76.58317699238636
2023-01-13T03:27:24.249Z,76.36300222575248
2023-01-13T03:31:23.683Z,76.17386634564166
2023-01-13T03:34:21.120Z,76.44839419346158
2023-01-13T03:37:22.991Z,76.21869018722506
2023-01-13T03:41:22.544Z,76.79210148823626
2023-01-13T03:44:30.336Z,77.12841357012883
2023-01-13T03:47:25.899Z,77.97169888083701
2023-01-13T03:51:19.744Z,77.74491678172969
2023-01-13T03:54:18.788Z,77.63077873226368
2023-01-13T03:57:19.621Z,77.67925381707725
2023-01-13T04:01:20.949Z,77.76914960438866
2023-01-13T04:04:21.173Z,77.98805622498999
2023-01-13T04:07:26.491Z,78.50786815980945
2023-01-13T04:11:24.506Z,77.52424577081837
2023-01-13T04:14:20.399Z,76.97821204915282
2023-01-13T04:17:16.242Z,77.03190800865336
2023-01-13T04:21:16.687Z,77.26956530062463
2023-01-13T04:24:17.152Z,77.90912857773162
2023-01-13T04:27:17.108Z,78.58915242607185
2023-01-13T04:31:15.872Z,78.85159970490349
2023-01-13T04:34:16.163Z,78.58099280968901
2023-01-13T04:37:16.258Z,78.29421273432173
2023-01-13T04:41:15.768Z,77.64529479412451
2023-01-13T04:44:16.100Z,77.40743751796559
2023-01-13T04:47:16.192Z,77.24230905041144
2023-01-13T04:51:15.838Z,77.19891995736805
2023-01-13T04:54:16.659Z,77.49516864614965
2023-01-13T04:57:16.311Z,77.89490733780696
2023-01-13T05:01:16.447Z,78.35871572931215
2023-01-13T05:04:17.236Z,79.01175818836566
2023-01-13T05:07:16.517Z,79.60772087650932
2023-01-13T05:25:22.105Z,79.04584585302133
2023-01-13T05:27:18.399Z,79.51167600237252
2023-01-13T05:31:16.893Z,79.69037995705051
2023-01-13T05:34:17.832Z,79.72019919296308
2023-01-13T05:37:17.139Z,79.46370430019915
2023-01-13T05:51:17.140Z,78.90485174759826
2023-01-13T05:54:16.909Z,78.57446361093804
2023-01-13T05:57:16.636Z,78.4514169582723
2023-01-13T06:01:16.329Z,78.20229452674526
2023-01-13T06:04:16.547Z,77.97641509510707
2023-01-13T06:07:16.450Z,78.1767756419807
2023-01-13T06:11:16.560Z,78.03948216363018
2023-01-13T06:14:16.713Z,78.20816865171562
2023-01-13T06:17:16.715Z,78.2610104245658
2023-01-13T06:21:16.360Z,77.87071698589887
2023-01-13T06:24:16.833Z,78.01198940162175
2023-01-13T06:27:17.713Z,77.94220372665525
2023-01-13T06:31:17.934Z,78.4709044222669
2023-01-13T06:34:16.993Z,78.50876899007375
2023-01-13T06:37:20.205Z,78.45953595289406
2023-01-13T06:41:17.716Z,78.20456390758942
2023-01-13T06:44:19.075Z,78.45731289448847
2023-01-13T06:47:16.987Z,78.6064811870606
2023-01-13T06:51:16.745Z,79.49757549151916
2023-01-13T06:54:17.336Z,79.4319425876453
2023-01-13T06:57:17.115Z,79.7969553845049
2023-01-13T07:01:17.269Z,80.0205788050884
2023-01-13T07:04:17.483Z,80.39637389039792
2023-01-13T07:07:17.450Z,80.47934691080614
2023-01-13T07:11:16.369Z,80.31222500973266
2023-01-13T07:15:22.720Z,80.28899474170008
2023-01-13T07:17:16.676Z,80.34547364984316
2023-01-13T07:21:20.537Z,80.15869280577401
2023-01-13T07:24:16.681Z,80.34830640704367
2023-01-13T07:27:16.724Z,80.92323141789305
2023-01-13T07:31:19.436Z,81.25170161202601
2023-01-13T07:34:16.252Z,81.61904241132876
2023-01-13T07:37:16.167Z,81.32386661392682
2023-01-13T07:51:16.849Z,81.49227415527017
2023-01-13T07:54:17.207Z,81.25984612499606
2023-01-13T07:57:17.446Z,81.29107294649394
2023-01-13T08:11:17.041Z,81.39883752499198
2023-01-13T08:14:16.796Z,81.39117781512917
2023-01-13T08:17:18.652Z,81.0707885840724
2023-01-13T08:21:16.598Z,80.97807917174042
2023-01-13T08:24:16.792Z,80.67206815413228
2023-01-13T08:27:16.785Z,80.674982199998
2023-01-13T08:31:17.001Z,80.71325520137283
2023-01-13T08:34:16.633Z,80.74154993966268
2023-01-13T08:37:16.512Z,80.96681413750122
2023-01-13T08:41:16.511Z,82.31037946972819
2023-01-13T08:44:16.281Z,82.43900538657537
2023-01-13T08:47:16.202Z,82.58141203331475
2023-01-13T08:51:16.612Z,82.50531239654806
2023-01-13T08:54:18.157Z,80.83730401418774
2023-01-13T08:57:17.379Z,81.07473858442378
2023-01-13T09:01:21.651Z,81.4246183666606
2023-01-13T09:04:19.850Z,81.55498886181881
2023-01-13T09:07:17.236Z,81.62118732408305
2023-01-13T09:13:13.407Z,81.02751952659271
2023-01-13T09:14:18.077Z,80.47125836902435
2023-01-13T09:17:17.321Z,79.57685898690464
2023-01-13T09:21:17.565Z,78.0523773947869
2023-01-13T09:24:16.699Z,78.13352531548946
2023-01-13T09:27:16.792Z,76.71068722298325
2023-01-13T09:31:15.896Z,73.97868962860075
2023-01-13T09:35:21.286Z,72.91471743488663
2023-01-13T09:37:16.440Z,72.92612422915572
2023-01-13T09:43:59.151Z,72.82034941102707
2023-01-13T09:44:23.256Z,72.87487475374915
2023-01-13T09:47:24.493Z,73.56630254583284
2023-01-13T09:51:26.806Z,72.20293537155804
2023-01-13T09:54:30.812Z,72.23263975018865
2023-01-13T09:57:18.816Z,68.1681507566797
2023-01-13T10:01:23.896Z,67.15109152131573
2023-01-13T10:04:16.940Z,66.7480830070967
2023-01-13T10:07:16.811Z,65.82726442259457
2023-01-13T10:21:37.423Z,64.3925291165594
2023-01-13T10:24:24.790Z,64.60224870001099
2023-01-13T10:27:24.277Z,64.87084395798871
2023-01-13T10:31:19.639Z,65.11620201848368
2023-01-13T10:34:18.246Z,67.52047872973573
2023-01-13T10:37:21.914Z,66.99346518299053
2023-01-13T10:41:22.729Z,65.37703486134332
2023-01-13T10:44:17.776Z,64.11702414741644
2023-01-13T10:47:21.782Z,62.80823202274048
2023-01-13T10:51:23.994Z,63.40181485169297
2023-01-13T10:54:20.604Z,62.2981586383763
2023-01-13T10:57:20.152Z,62.44837694778746
2023-01-13T11:01:25.430Z,62.19358602810895
2023-01-13T11:04:28.922Z,62.47352765597862
2023-01-13T11:07:23.121Z,63.050453240232315
2023-01-13T11:11:43.282Z,61.38676774406182
2023-01-13T11:14:50.327Z,60.110542630158555
2023-01-13T11:17:29.987Z,59.07186020046139
2023-01-13T11:21:22.002Z,59.36874926816934
2023-01-13T11:24:22.826Z,58.16670502218026
2023-01-13T11:27:22.821Z,56.90606498116865
2023-01-13T11:31:23.418Z,55.87388120171268
2023-01-13T11:34:27.488Z,55.200508875058816
2023-01-13T11:37:22.183Z,54.93365734707319
2023-01-13T11:41:27.945Z,54.45092817056964
2023-01-13T11:44:21.944Z,55.0755626051615
2023-01-13T11:47:20.236Z,56.04170364819462
2023-01-13T11:51:31.499Z,54.83312947631247
2023-01-13T11:54:32.090Z,54.00798379761889
2023-01-13T11:57:34.375Z,52.938327605096966
2023-01-13T12:01:33.933Z,52.31148720889403
2023-01-13T12:04:25.569Z,53.268527917588216
2023-01-13T12:07:23.154Z,53.364163184130994
2023-01-13T12:11:23.701Z,53.379339965698364
2023-01-13T12:14:24.704Z,53.941917454406365
2023-01-13T12:17:26.105Z,52.51845485789369
2023-01-13T12:21:20.862Z,52.17507340050694
2023-01-13T12:24:25.292Z,52.71545001167799
2023-01-13T12:27:35.183Z,52.799867085234254
2023-01-13T12:31:20.339Z,53.51885501486833
2023-01-13T12:34:32.576Z,53.325766997539574
2023-01-13T12:37:25.543Z,51.18877093366758
2023-01-13T12:41:33.781Z,51.05368250178458
2023-01-13T12:44:17.904Z,50.615412476578975
2023-01-13T12:47:34.578Z,50.7042577941481
2023-01-13T12:51:22.632Z,50.719695686017296
2023-01-13T12:55:00.519Z,50.701168599142946
2023-01-13T12:57:21.641Z,51.01822640210818
2023-01-13T13:01:16.805Z,51.3925936602927
2023-01-13T13:04:19.076Z,52.04927462078177
2023-01-13T13:07:21.204Z,52.252422228182645
2023-01-13T13:13:39.391Z,52.76216242421574
2023-01-13T13:15:02.269Z,53.1342836583546
2023-01-13T13:17:39.848Z,51.9346198669835
2023-01-13T13:21:16.983Z,52.64799849839327
2023-01-13T13:24:18.495Z,53.09966572658335
2023-01-13T13:27:18.236Z,53.26651375866678
2023-01-13T13:31:29.460Z,54.161121887428685
2023-01-13T13:34:27.906Z,54.62313980843887
2023-01-13T13:37:31.856Z,55.160137639290994
2023-01-13T13:51:25.011Z,55.140749714256806
2023-01-13T13:54:20.412Z,55.025343291484276
2023-01-13T13:57:18.553Z,55.69278554280926
2023-01-13T14:01:24.530Z,56.1806172963831
2023-01-13T14:04:20.116Z,57.39641280932355
2023-01-13T14:07:20.442Z,57.791982266568525
2023-01-13T14:11:25.854Z,58.16106064980835
2023-01-13T14:14:21.343Z,59.047889503274405
2023-01-13T14:17:20.120Z,59.36344405899899
2023-01-13T14:21:19.423Z,58.82953248870655
2023-01-13T14:24:17.743Z,60.05331218428284
2023-01-13T14:27:18.124Z,60.404609262990384
2023-01-13T14:31:16.923Z,61.03518826829481
2023-01-13T14:34:32.705Z,60.93600327256763
2023-01-13T14:37:29.406Z,61.61972428291507
2023-01-13T14:41:20.053Z,62.16759026335563
2023-01-13T14:44:23.591Z,62.6268646038813
2023-01-13T14:47:21.119Z,63.07516883534221
2023-01-13T14:51:27.396Z,62.3506362748969
2023-01-13T14:54:51.752Z,62.23923299998373
2023-01-13T14:57:26.106Z,62.179425477595984
2023-01-13T15:01:35.392Z,62.73769687296188
2023-01-13T15:04:23.144Z,62.82917317715606
2023-01-13T15:07:25.479Z,63.05821487593351
2023-01-13T15:11:24.908Z,63.45425016208611
2023-01-13T15:14:23.505Z,63.568923282559155
2023-01-13T15:17:17.382Z,63.68291432012022
2023-01-13T15:21:17.088Z,63.77468392020924
2023-01-13T15:24:17.003Z,64.01091196139141
2023-01-13T15:27:20.944Z,64.3591604893347
2023-01-13T15:31:16.860Z,62.77140644541408
2023-01-13T15:34:16.833Z,62.56499410957758
2023-01-13T15:37:17.281Z,62.50627667620612
2023-01-13T15:41:17.305Z,63.051782017315766
2023-01-13T16:11:16.190Z,65.94153148330685
2023-01-13T16:14:16.387Z,66.40396162900372
2023-01-13T16:17:19.443Z,67.29776198514439
2023-01-13T16:21:19.821Z,67.1432462566698
2023-01-13T16:24:18.681Z,67.57552947355897
2023-01-13T16:27:19.515Z,67.81519925758525
2023-01-13T16:31:24.252Z,68.10888547557575
2023-01-13T16:34:17.661Z,68.39446787346475
2023-01-13T16:37:20.133Z,69.00021987791315
2023-01-13T16:41:15.956Z,70.17039606344015
2023-01-13T16:44:16.323Z,70.10875431899532
2023-01-13T16:47:20.681Z,69.93298062520961
2023-01-13T16:51:17.060Z,70.31267714648652
2023-01-13T16:54:17.317Z,71.00838939755126
2023-01-13T16:57:16.588Z,71.68270442869921
2023-01-13T17:01:24.862Z,71.77845875296548
2023-01-13T17:04:21.297Z,72.34220623015216
2023-01-13T17:07:17.738Z,72.32075355898708
2023-01-13T17:11:16.129Z,72.07450403248875
2023-01-13T17:14:19.314Z,72.57377683559416
2023-01-13T17:17:21.798Z,73.00042539128204
2023-01-13T17:21:16.918Z,72.88634353855474
2023-01-13T17:24:17.269Z,73.50621115185334
2023-01-13T17:27:21.292Z,73.48885877748204
2023-01-13T17:31:16.397Z,73.16225783816617
2023-01-13T17:34:21.347Z,73.25099983038851
2023-01-13T17:37:17.028Z,72.44424155226848
2023-01-13T17:41:16.634Z,73.6800194213156
2023-01-13T17:44:18.681Z,73.53363186574153
2023-01-13T17:47:17.048Z,73.957965218228
2023-01-13T17:51:18.626Z,72.98306164123088
2023-01-13T17:54:17.382Z,73.5396975728363
2023-01-13T17:57:16.536Z,74.1622311177744
2023-01-13T18:01:21.421Z,74.00612126122087
2023-01-13T18:04:40.921Z,74.00173251935412
2023-01-13T18:07:18.905Z,73.89315326559786
2023-01-13T18:11:35.429Z,73.7581522028321
2023-01-13T18:14:23.003Z,75.49904237535658
2023-01-13T18:17:23.697Z,75.64884795350243
2023-01-13T18:31:32.678Z,75.75959489480249
2023-01-13T18:34:35.249Z,75.75471928241798
2023-01-13T18:37:44.397Z,75.74277173085308
2023-01-13T18:51:29.018Z,76.63929018857829
2023-01-13T18:54:17.215Z,77.17048641772578
2023-01-13T18:57:17.900Z,77.78301141162353
2023-01-13T19:01:27.049Z,78.90805237287574
2023-01-13T19:04:22.919Z,79.5510576536577
2023-01-13T19:07:29.434Z,79.85710646819663
2023-01-13T19:11:26.761Z,80.79844087493012
2023-01-13T19:21:15.906Z,79.88980886546932
2023-01-13T19:24:16.185Z,81.28603087927974
2023-01-13T19:27:18.298Z,81.20789204538421
2023-01-13T19:31:17.278Z,80.51801399986088
2023-01-13T19:34:16.902Z,81.27049000749399
2023-01-13T19:37:17.878Z,81.98305484922246
2023-01-13T19:45:26.754Z,80.66384316485268
2023-01-13T19:47:17.942Z,80.5681499823291
2023-01-13T19:51:16.116Z,80.72270755229955
2023-01-13T19:54:16.296Z,81.1712212240468
2023-01-13T19:57:16.405Z,82.61158991315398
2023-01-13T20:01:16.897Z,81.59483406929583
2023-01-13T20:04:19.477Z,82.42080918087716
2023-01-13T20:07:16.936Z,83.72516695090401
2023-01-13T20:11:26.082Z,83.96050262393081
2023-01-13T20:14:17.403Z,84.11852457929741
2023-01-13T20:17:19.715Z,83.97691178038953
2023-01-13T20:21:17.264Z,83.89803285357974
2023-01-13T20:24:17.624Z,84.102114696978
2023-01-13T20:27:17.263Z,84.14393303309308
2023-01-13T20:31:16.275Z,84.30542703913741
2023-01-13T20:34:19.304Z,84.58513640292959
2023-01-13T20:37:17.114Z,84.8137052207323
2023-01-13T20:51:16.555Z,85.45126573755766
2023-01-13T20:54:17.259Z,84.99491059394822
2023-01-13T20:57:17.690Z,85.44974614969755
2023-01-13T21:01:16.783Z,85.52565220289488
2023-01-13T21:04:17.102Z,85.4083607838238
2023-01-13T21:07:17.923Z,85.2424403859131
2023-01-13T21:15:18.247Z,84.96689936016288
2023-01-13T21:19:07.460Z,85.28328405546554
2023-01-13T21:21:16.797Z,84.32414582680225
2023-01-13T21:24:16.896Z,84.90318545268165
2023-01-13T21:27:17.044Z,84.64993551312953
2023-01-13T21:31:17.663Z,84.3484813909907
2023-01-13T21:34:17.077Z,83.98592114600235
2023-01-13T21:37:17.867Z,83.99988045566224
2023-01-13T21:46:17.656Z,83.43367494609065
2023-01-13T21:47:49.681Z,83.7415257343057
2023-01-13T21:51:16.686Z,83.5369128877909
2023-01-13T21:54:17.083Z,83.56636945073734
2023-01-13T21:57:17.108Z,83.50735891910341
2023-01-13T22:01:18.667Z,84.03732727358502
2023-01-13T22:04:22.323Z,84.30520969051727
2023-01-13T22:07:17.898Z,84.58436494551846
2023-01-13T22:11:16.872Z,84.39213326197604
2023-01-13T22:14:16.792Z,84.38963820120993
2023-01-13T22:17:18.403Z,84.16593982123682
2023-01-13T22:21:16.194Z,84.43546730294084
2023-01-13T22:24:16.833Z,84.59909578362132
2023-01-13T22:27:18.088Z,85.42932529720635
2023-01-13T22:31:18.028Z,85.0034647781956
2023-01-13T22:34:16.606Z,85.60620438054234
2023-01-13T22:37:16.577Z,85.47227427886381
2023-01-13T22:41:15.920Z,84.47872116831286
2023-01-13T22:44:16.286Z,83.75159561175225
2023-01-13T22:47:16.143Z,84.81752626343126
2023-01-13T22:51:16.557Z,84.65061891296115
2023-01-13T22:54:17.297Z,85.46706063846096
2023-01-13T22:57:16.671Z,85.37755166760243
2023-01-13T23:01:17.086Z,85.2511328894413
2023-01-13T23:04:16.926Z,84.93647438115366
2023-01-13T23:07:17.786Z,84.8449270835343
2023-01-13T23:11:18.103Z,84.08748789763419
2023-01-13T23:14:16.484Z,84.76227775742254
2023-01-13T23:17:16.443Z,84.7981346330864
2023-01-13T23:21:19.127Z,84.66474354958531
2023-01-13T23:24:16.991Z,84.83898015580517
2023-01-13T23:27:16.859Z,84.96781848593892
2023-01-13T23:31:19.337Z,84.58128031038974
2023-01-13T23:34:16.361Z,84.84916429980203
2023-01-13T23:37:16.279Z,85.29085842730345
2023-01-13T23:41:18.318Z,85.9639997576678
2023-01-13T23:44:16.621Z,86.51209102379933
2023-01-13T23:47:16.208Z,86.6359447839386
2023-01-13T23:51:16.587Z,85.7612629538219
2023-01-13T23:54:16.805Z,85.15850089315862
2023-01-13T23:57:16.561Z,85.43936740165198
